McZena, Ohio
Current Conditions -  °F | °C
As of 8:56 AM on Monday 20 Oct 2014 (Local Time) from KBJJ Reporting Station
Broken Clouds Broken Clouds  
Wind Chill: 44°   Ceiling: 10000
Heat Index: 47°   Visibility: 10mi
Dew Point: 39°   Wind: 6mph
Humidity: 74%   Direction: 200°SSW
Pressure: 29.96"   Gusts: NA
Location:  40.6482°N, 82.138°W
Report Text: KBJJ 201256Z AUTO 20005KT 10SM BKN100 BKN120 08/04 A2996 RMK AO2 RAB11E34 SLP151 P0000 T00830039 TSNO
Loading
Personal Weather Stations






























Interactive Weather Map
Tropical Storm Tracking
New forecast layout! Learn more

10-Day Weather Forecast

Advertisements
Track Severe Weather on mobile